Time;durP1;ratioP1;P1;durP2;ratioP2;P2;SDS_P1;SDS_P2;PMS_P1;PMS_P2;Temp;Humidity;BMP_temperature;BMP_pressure;BME280_temperature;BME280_humidity;BME280_pressure;Samples;Min_cycle;Max_cycle;Signal;HPM_P1;HPM_P2
2024/02/12 00:02:18;;;;;;;12.07;10.75;;;;;;;;;;5010463;28;20041;-64
2024/02/12 00:04:47;;;;;;;13.50;11.30;;;;;;;;;;5011813;28;20022;-64
2024/02/12 00:07:14;;;;;;;12.18;10.98;;;;;;;;;;5008962;28;20064;-64
2024/02/12 00:09:40;;;;;;;12.73;10.75;;;;;;;;;;5012417;28;20459;-64
2024/02/12 00:12:06;;;;;;;13.30;11.45;;;;;;;;;;5002182;28;20038;-64
2024/02/12 00:14:32;;;;;;;13.00;11.60;;;;;;;;;;5006076;28;21951;-64
2024/02/12 00:16:58;;;;;;;13.98;12.32;;;;;;;;;;5010391;28;20526;-64
2024/02/12 00:19:24;;;;;;;14.35;12.05;;;;;;;;;;5013206;28;20117;-64
2024/02/12 00:21:50;;;;;;;12.70;11.35;;;;;;;;;;5008436;28;20086;-64
2024/02/12 00:24:17;;;;;;;12.18;10.82;;;;;;;;;;5010618;28;20074;-64
2024/02/12 00:26:43;;;;;;;13.98;12.25;;;;;;;;;;5001315;28;20030;-64
2024/02/12 00:29:09;;;;;;;14.00;12.18;;;;;;;;;;5009606;28;20421;-64
2024/02/12 00:31:35;;;;;;;14.10;12.10;;;;;;;;;;5014127;28;20178;-65
2024/02/12 00:34:01;;;;;;;20.48;12.98;;;;;;;;;;5007132;28;20080;-64
2024/02/12 00:36:30;;;;;;;14.75;13.15;;;;;;;;;;5008581;28;20035;-64
2024/02/12 00:38:57;;;;;;;14.15;12.68;;;;;;;;;;5001339;28;20388;-64
2024/02/12 00:41:23;;;;;;;18.02;14.02;;;;;;;;;;5013605;28;20111;-65
2024/02/12 00:43:51;;;;;;;16.35;13.70;;;;;;;;;;5008875;28;20037;-64
2024/02/12 00:46:18;;;;;;;17.25;14.23;;;;;;;;;;5005976;28;20042;-65
2024/02/12 00:48:45;;;;;;;19.88;16.63;;;;;;;;;;5010950;28;20018;-64
2024/02/12 00:51:12;;;;;;;19.15;15.95;;;;;;;;;;5010447;28;20030;-64
2024/02/12 00:53:41;;;;;;;19.73;16.17;;;;;;;;;;5005749;28;20517;-64
2024/02/12 00:56:08;;;;;;;17.48;15.50;;;;;;;;;;5008300;28;20077;-65
2024/02/12 00:58:37;;;;;;;20.35;17.75;;;;;;;;;;5001777;28;20479;-64
2024/02/12 01:01:04;;;;;;;19.58;16.92;;;;;;;;;;5011555;28;20113;-64
2024/02/12 01:03:31;;;;;;;20.63;17.40;;;;;;;;;;5007218;28;20018;-64
2024/02/12 01:05:57;;;;;;;16.58;14.88;;;;;;;;;;5010308;28;20160;-64
2024/02/12 01:08:24;;;;;;;18.98;15.05;;;;;;;;;;5011997;28;20481;-64
2024/02/12 01:10:50;;;;;;;18.13;15.23;;;;;;;;;;5005774;28;20475;-64
2024/02/12 01:13:16;;;;;;;19.95;16.65;;;;;;;;;;5021526;28;20034;-64
2024/02/12 01:15:42;;;;;;;20.75;15.70;;;;;;;;;;5012880;28;20026;-64
2024/02/12 01:18:09;;;;;;;24.20;17.42;;;;;;;;;;5010419;28;20440;-64
2024/02/12 01:20:35;;;;;;;20.83;15.10;;;;;;;;;;5011959;28;20025;-63
2024/02/12 01:23:01;;;;;;;20.48;16.63;;;;;;;;;;5012443;28;20038;-64
2024/02/12 01:25:27;;;;;;;20.23;15.88;;;;;;;;;;5002489;28;20099;-64
2024/02/12 01:27:54;;;;;;;20.13;14.65;;;;;;;;;;5007915;28;20045;-64
2024/02/12 01:30:20;;;;;;;18.38;15.10;;;;;;;;;;5010183;28;20018;-64
2024/02/12 01:32:46;;;;;;;18.08;15.43;;;;;;;;;;5011226;28;20165;-64
2024/02/12 01:35:12;;;;;;;18.45;14.63;;;;;;;;;;5006201;28;20030;-64
2024/02/12 01:37:38;;;;;;;20.38;15.27;;;;;;;;;;5010779;28;20029;-64
2024/02/12 01:40:05;;;;;;;18.42;15.13;;;;;;;;;;5010976;28;20030;-64
2024/02/12 01:42:31;;;;;;;22.05;17.42;;;;;;;;;;5011904;28;20049;-64
2024/02/12 01:45:26;;;;;;;21.00;16.95;;;;;;;;;;5009032;28;20030;-64
2024/02/12 01:47:57;;;;;;;20.23;16.50;;;;;;;;;;4999098;28;20042;-64
2024/02/12 01:50:24;;;;;;;23.25;18.23;;;;;;;;;;5020007;28;20460;-64
2024/02/12 01:52:51;;;;;;;22.77;16.40;;;;;;;;;;5012745;28;20117;-64
2024/02/12 01:55:20;;;;;;;21.80;16.10;;;;;;;;;;5005884;28;20105;-64
2024/02/12 01:57:50;;;;;;;22.02;17.35;;;;;;;;;;5008527;28;20464;-64
2024/02/12 02:00:17;;;;;;;24.23;19.00;;;;;;;;;;5005173;28;20097;-64
2024/02/12 02:02:43;;;;;;;24.67;19.95;;;;;;;;;;5004795;28;20026;-64
2024/02/12 02:05:13;;;;;;;28.88;21.92;;;;;;;;;;5025765;28;20053;-64
2024/02/12 02:07:39;;;;;;;28.10;21.63;;;;;;;;;;4999459;28;20061;-63
2024/02/12 02:10:09;;;;;;;25.88;20.02;;;;;;;;;;4997782;28;20592;-64
2024/02/12 02:12:36;;;;;;;29.27;22.02;;;;;;;;;;5004541;28;20073;-64
2024/02/12 02:15:02;;;;;;;27.63;22.52;;;;;;;;;;5006012;28;20050;-65
2024/02/12 02:17:28;;;;;;;27.58;20.42;;;;;;;;;;5007119;28;20025;-64
2024/02/12 02:19:54;;;;;;;26.63;20.23;;;;;;;;;;5005918;28;20014;-64
2024/02/12 02:22:21;;;;;;;30.38;23.15;;;;;;;;;;5006784;28;20145;-64
2024/02/12 02:24:48;;;;;;;34.60;23.00;;;;;;;;;;5000857;28;20108;-64
2024/02/12 02:27:14;;;;;;;38.83;25.55;;;;;;;;;;5008006;28;20042;-64
2024/02/12 02:29:40;;;;;;;40.45;27.52;;;;;;;;;;5005890;28;20057;-64
2024/02/12 02:32:06;;;;;;;37.70;23.92;;;;;;;;;;5011446;28;20064;-64
2024/02/12 02:34:32;;;;;;;40.10;25.70;;;;;;;;;;5009609;28;20031;-63
2024/02/12 02:37:00;;;;;;;36.15;24.75;;;;;;;;;;5010578;28;20045;-64
2024/02/12 02:39:26;;;;;;;35.90;24.95;;;;;;;;;;5009528;28;20037;-64
2024/02/12 02:41:52;;;;;;;32.58;22.48;;;;;;;;;;5010844;28;20034;-64
2024/02/12 02:44:18;;;;;;;32.53;23.00;;;;;;;;;;5005603;28;20034;-64
2024/02/12 02:46:46;;;;;;;28.65;21.05;;;;;;;;;;5001997;28;20022;-64
2024/02/12 02:49:14;;;;;;;31.50;22.45;;;;;;;;;;4998512;28;20030;-64
2024/02/12 02:51:40;;;;;;;33.13;23.05;;;;;;;;;;5011345;28;20030;-64
2024/02/12 02:54:08;;;;;;;29.80;21.58;;;;;;;;;;5004296;28;20448;-64
2024/02/12 02:56:37;;;;;;;31.90;21.55;;;;;;;;;;5002062;28;20025;-64
2024/02/12 02:59:03;;;;;;;32.00;22.38;;;;;;;;;;5003797;28;20030;-63
2024/02/12 03:01:30;;;;;;;31.58;23.13;;;;;;;;;;5007879;28;20192;-63
2024/02/12 03:03:56;;;;;;;32.72;22.35;;;;;;;;;;5007224;28;20018;-63
2024/02/12 03:06:26;;;;;;;31.85;22.33;;;;;;;;;;5005367;28;20121;-63
2024/02/12 03:08:52;;;;;;;33.22;22.67;;;;;;;;;;5004126;28;20022;-63
2024/02/12 03:11:25;;;;;;;32.55;23.58;;;;;;;;;;5003449;28;20551;-63
2024/02/12 03:13:51;;;;;;;37.90;25.23;;;;;;;;;;5003691;28;20023;-64
2024/02/12 03:16:18;;;;;;;39.17;27.15;;;;;;;;;;5004991;28;20030;-63
2024/02/12 03:18:47;;;;;;;40.72;27.73;;;;;;;;;;5009957;28;20476;-63
2024/02/12 03:21:13;;;;;;;38.97;26.88;;;;;;;;;;5009979;28;20045;-63
2024/02/12 03:23:40;;;;;;;37.72;26.75;;;;;;;;;;5008172;28;20057;-63
2024/02/12 03:26:06;;;;;;;41.38;27.17;;;;;;;;;;5010482;28;20104;-64
2024/02/12 03:28:35;;;;;;;39.67;28.80;;;;;;;;;;5006317;28;20033;-63
2024/02/12 03:31:01;;;;;;;38.35;26.83;;;;;;;;;;5008165;28;20084;-63
2024/02/12 03:33:27;;;;;;;41.60;29.00;;;;;;;;;;5006816;28;20026;-63
2024/02/12 03:35:53;;;;;;;42.67;28.80;;;;;;;;;;5008317;28;20046;-63
2024/02/12 03:38:19;;;;;;;47.25;29.17;;;;;;;;;;5011026;28;20080;-63
2024/02/12 03:40:45;;;;;;;44.60;28.17;;;;;;;;;;5012752;28;20184;-63
2024/02/12 03:43:11;;;;;;;42.13;28.20;;;;;;;;;;5008841;28;20519;-63
2024/02/12 03:45:37;;;;;;;39.58;27.42;;;;;;;;;;5011069;28;20029;-63
2024/02/12 03:59:51;;;;;;;46.35;29.83;;;;;;;;;;5013497;28;20073;-63
2024/02/12 04:01:48;;;;;;;43.50;27.60;;;;;;;;;;5011888;28;20040;-63
2024/02/12 04:04:14;;;;;;;42.10;26.90;;;;;;;;;;5007575;28;20019;-63
2024/02/12 04:06:40;;;;;;;41.85;27.55;;;;;;;;;;5018465;28;20113;-64
2024/02/12 04:09:08;;;;;;;41.20;27.25;;;;;;;;;;5008530;28;20018;-63
2024/02/12 04:11:34;;;;;;;39.83;26.35;;;;;;;;;;5014825;28;20026;-64
2024/02/12 04:14:00;;;;;;;44.22;29.33;;;;;;;;;;5010428;28;20022;-64
2024/02/12 04:16:26;;;;;;;50.38;29.42;;;;;;;;;;4999614;28;20439;-64
2024/02/12 04:18:52;;;;;;;40.40;26.27;;;;;;;;;;5002610;28;20088;-64
2024/02/12 04:21:20;;;;;;;43.58;25.67;;;;;;;;;;5023122;28;20037;-64
2024/02/12 04:23:49;;;;;;;47.47;29.02;;;;;;;;;;5007971;28;20042;-63
2024/02/12 04:26:15;;;;;;;40.80;27.23;;;;;;;;;;5006171;28;20027;-63
2024/02/12 04:28:45;;;;;;;43.50;27.67;;;;;;;;;;5012405;28;20121;-64
2024/02/12 04:31:11;;;;;;;44.75;28.33;;;;;;;;;;5012229;28;20026;-64
2024/02/12 04:33:44;;;;;;;43.65;28.63;;;;;;;;;;5012539;28;20468;-64
2024/02/12 04:36:14;;;;;;;43.47;28.77;;;;;;;;;;5010104;28;20025;-63
2024/02/12 04:38:40;;;;;;;48.47;31.60;;;;;;;;;;5002511;28;20156;-63
2024/02/12 04:41:06;;;;;;;44.88;30.02;;;;;;;;;;5013900;28;20149;-63
2024/02/12 04:43:35;;;;;;;44.88;28.83;;;;;;;;;;5003322;28;20033;-63
2024/02/12 04:46:02;;;;;;;48.38;29.83;;;;;;;;;;5011973;28;20109;-63
2024/02/12 04:48:28;;;;;;;41.28;27.48;;;;;;;;;;5011953;28;20379;-63
2024/02/12 04:50:54;;;;;;;35.90;24.25;;;;;;;;;;5012060;28;20040;-63
2024/02/12 04:53:20;;;;;;;34.50;24.20;;;;;;;;;;5012610;28;20034;-64
2024/02/12 04:55:46;;;;;;;31.95;23.25;;;;;;;;;;5024785;28;20044;-65
2024/02/12 04:58:12;;;;;;;35.25;24.13;;;;;;;;;;5008668;28;20030;-64
2024/02/12 05:00:38;;;;;;;44.05;26.95;;;;;;;;;;5008478;28;20022;-64
2024/02/12 05:03:07;;;;;;;43.15;26.45;;;;;;;;;;4998073;28;20105;-64
2024/02/12 05:05:33;;;;;;;37.65;25.05;;;;;;;;;;5010655;28;20120;-65
2024/02/12 05:08:03;;;;;;;38.90;25.23;;;;;;;;;;5012012;28;20137;-64
2024/02/12 05:10:29;;;;;;;39.72;26.17;;;;;;;;;;5013515;28;20021;-65
2024/02/12 05:12:56;;;;;;;39.05;24.55;;;;;;;;;;5008703;28;20098;-64
2024/02/12 05:15:24;;;;;;;39.53;24.83;;;;;;;;;;5011341;28;20045;-64
2024/02/12 05:17:55;;;;;;;33.13;22.30;;;;;;;;;;5008398;28;20072;-64
2024/02/12 05:23:08;;;;;;;36.42;23.58;;;;;;;;;;5011801;28;20171;-65
2024/02/12 05:25:34;;;;;;;36.92;23.58;;;;;;;;;;5011474;28;20054;-64
2024/02/12 05:28:00;;;;;;;40.30;25.58;;;;;;;;;;5022511;28;20476;-65
2024/02/12 05:30:26;;;;;;;39.63;24.77;;;;;;;;;;5011106;28;20112;-64
2024/02/12 05:32:52;;;;;;;43.58;25.35;;;;;;;;;;5000886;28;20041;-65
2024/02/12 05:35:18;;;;;;;33.15;22.88;;;;;;;;;;5010681;28;20038;-64
2024/02/12 05:37:44;;;;;;;39.85;24.90;;;;;;;;;;5010383;28;20041;-65
2024/02/12 05:40:13;;;;;;;37.47;23.73;;;;;;;;;;5008192;28;20033;-64
2024/02/12 05:42:39;;;;;;;39.20;24.25;;;;;;;;;;5007746;28;20394;-64
2024/02/12 05:45:06;;;;;;;42.95;24.35;;;;;;;;;;5012466;28;20030;-64
2024/02/12 05:47:32;;;;;;;45.95;26.05;;;;;;;;;;5011182;28;20472;-64
2024/02/12 05:49:58;;;;;;;37.03;24.50;;;;;;;;;;5011398;28;20037;-64
2024/02/12 05:52:24;;;;;;;44.55;25.35;;;;;;;;;;5006559;28;20034;-64
2024/02/12 05:54:51;;;;;;;42.00;24.65;;;;;;;;;;5008916;28;20030;-64
2024/02/12 05:57:17;;;;;;;37.17;24.05;;;;;;;;;;5009374;28;20022;-65
2024/02/12 05:59:43;;;;;;;42.00;24.27;;;;;;;;;;5012385;28;20022;-65
2024/02/12 06:02:09;;;;;;;40.33;23.83;;;;;;;;;;5010250;28;20142;-64
2024/02/12 06:04:35;;;;;;;41.78;24.90;;;;;;;;;;5004452;28;20027;-65
2024/02/12 06:07:01;;;;;;;43.67;25.58;;;;;;;;;;5007563;28;20025;-65
2024/02/12 06:09:30;;;;;;;40.95;24.38;;;;;;;;;;5008760;28;20053;-64
2024/02/12 06:11:56;;;;;;;43.20;25.23;;;;;;;;;;5005936;28;20488;-64
2024/02/12 06:14:22;;;;;;;49.97;25.80;;;;;;;;;;5006149;28;20037;-64
2024/02/12 06:16:49;;;;;;;41.80;23.83;;;;;;;;;;5010360;28;20034;-64
2024/02/12 06:19:15;;;;;;;44.80;21.95;;;;;;;;;;5011030;28;20037;-64
2024/02/12 06:21:47;;;;;;;38.47;23.08;;;;;;;;;;5011874;28;20045;-64
2024/02/12 06:24:13;;;;;;;38.13;23.42;;;;;;;;;;5011680;28;20077;-64
2024/02/12 06:26:39;;;;;;;37.08;22.08;;;;;;;;;;5006838;28;20030;-64
2024/02/12 06:29:07;;;;;;;31.55;19.50;;;;;;;;;;5024908;28;20434;-65
2024/02/12 06:31:34;;;;;;;25.23;15.32;;;;;;;;;;5007256;28;20025;-64
2024/02/12 06:34:00;;;;;;;20.08;14.07;;;;;;;;;;5007802;28;20376;-64
2024/02/12 06:36:26;;;;;;;21.48;14.32;;;;;;;;;;5003816;28;20034;-63
2024/02/12 06:38:52;;;;;;;22.70;15.18;;;;;;;;;;5017800;28;20028;-64
2024/02/12 06:41:19;;;;;;;23.65;14.38;;;;;;;;;;5005177;28;20139;-64
2024/02/12 06:43:45;;;;;;;21.73;14.90;;;;;;;;;;5006785;28;20037;-65
2024/02/12 06:46:11;;;;;;;19.55;12.68;;;;;;;;;;5002505;28;20053;-64
2024/02/12 06:48:39;;;;;;;17.15;12.68;;;;;;;;;;4993838;28;20033;-64
2024/02/12 06:51:08;;;;;;;18.20;12.73;;;;;;;;;;5006519;28;20040;-64
2024/02/12 06:53:35;;;;;;;16.15;11.80;;;;;;;;;;4998328;28;20034;-64
2024/02/12 06:56:05;;;;;;;18.05;11.88;;;;;;;;;;5005613;28;20113;-65
2024/02/12 06:58:31;;;;;;;14.48;11.48;;;;;;;;;;5002113;28;20056;-65
2024/02/12 07:00:57;;;;;;;15.48;10.68;;;;;;;;;;5001061;28;20056;-64
2024/02/12 07:03:24;;;;;;;14.30;10.98;;;;;;;;;;4999818;28;20026;-64
2024/02/12 07:05:50;;;;;;;15.40;11.50;;;;;;;;;;5008131;28;20022;-64
2024/02/12 07:08:18;;;;;;;16.05;11.23;;;;;;;;;;4999543;28;20058;-64
2024/02/12 07:10:44;;;;;;;14.70;11.70;;;;;;;;;;5004520;28;20391;-64
2024/02/12 07:13:10;;;;;;;14.20;11.35;;;;;;;;;;5008043;28;20494;-64
2024/02/12 07:15:37;;;;;;;18.33;12.63;;;;;;;;;;5015191;28;20033;-64
2024/02/12 07:18:03;;;;;;;16.08;12.50;;;;;;;;;;5015901;28;20033;-64
2024/02/12 07:20:29;;;;;;;20.13;13.07;;;;;;;;;;5015417;28;20038;-63
2024/02/12 07:22:55;;;;;;;17.40;12.55;;;;;;;;;;5010943;28;20512;-64
2024/02/12 07:25:21;;;;;;;17.95;13.50;;;;;;;;;;5007532;28;20045;-63
2024/02/12 07:27:47;;;;;;;19.30;13.50;;;;;;;;;;5013848;28;20042;-64
2024/02/12 07:30:14;;;;;;;21.73;15.05;;;;;;;;;;5014262;28;20033;-64
2024/02/12 07:32:40;;;;;;;25.75;16.90;;;;;;;;;;5011683;28;20042;-65
2024/02/12 07:35:08;;;;;;;22.88;16.92;;;;;;;;;;5013633;28;20026;-64
2024/02/12 07:37:34;;;;;;;28.13;19.23;;;;;;;;;;5013203;28;20072;-64
2024/02/12 07:40:01;;;;;;;30.20;19.65;;;;;;;;;;5013323;28;20408;-63
2024/02/12 07:42:27;;;;;;;32.20;19.67;;;;;;;;;;5014116;28;20041;-63
2024/02/12 07:44:54;;;;;;;37.75;22.90;;;;;;;;;;5014764;28;20435;-64
2024/02/12 07:47:21;;;;;;;36.35;22.88;;;;;;;;;;5014908;28;20042;-65
2024/02/12 07:49:47;;;;;;;39.92;23.58;;;;;;;;;;5013290;28;20061;-64
2024/02/12 07:52:13;;;;;;;47.67;26.00;;;;;;;;;;5013359;28;20479;-65
2024/02/12 07:54:41;;;;;;;42.50;24.95;;;;;;;;;;5022469;28;20589;-65
2024/02/12 07:57:08;;;;;;;39.35;24.45;;;;;;;;;;5012628;28;20034;-65
2024/02/12 07:59:34;;;;;;;43.33;25.23;;;;;;;;;;5009112;28;20101;-65
2024/02/12 08:02:02;;;;;;;41.65;24.58;;;;;;;;;;5009251;28;20041;-73
2024/02/12 08:04:28;;;;;;;44.42;24.65;;;;;;;;;;5015516;28;20100;-73
2024/02/12 08:06:56;;;;;;;38.38;24.08;;;;;;;;;;5013016;28;20026;-74
2024/02/12 08:09:23;;;;;;;36.78;22.42;;;;;;;;;;5008221;28;20426;-73
2024/02/12 08:11:50;;;;;;;40.67;24.40;;;;;;;;;;4998808;28;20089;-73
2024/02/12 08:14:16;;;;;;;38.75;21.55;;;;;;;;;;5006620;28;20117;-73
2024/02/12 08:16:46;;;;;;;38.80;23.15;;;;;;;;;;5014483;28;20018;-74
2024/02/12 08:19:12;;;;;;;38.83;23.25;;;;;;;;;;5000988;28;20030;-74
2024/02/12 08:21:38;;;;;;;37.55;23.50;;;;;;;;;;5013897;28;20373;-74
2024/02/12 08:24:04;;;;;;;31.42;19.77;;;;;;;;;;5013973;28;20069;-74
2024/02/12 08:26:30;;;;;;;34.70;20.63;;;;;;;;;;5000825;28;20118;-73
2024/02/12 08:28:58;;;;;;;33.47;19.92;;;;;;;;;;5014270;28;20121;-74
2024/02/12 08:31:24;;;;;;;35.08;21.00;;;;;;;;;;5014414;28;20034;-74
2024/02/12 08:33:50;;;;;;;35.97;21.45;;;;;;;;;;5014780;28;20080;-74
2024/02/12 08:36:17;;;;;;;35.33;20.40;;;;;;;;;;5014304;28;20025;-74
2024/02/12 08:38:43;;;;;;;35.78;21.13;;;;;;;;;;5014225;28;20014;-74
2024/02/12 08:44:12;;;;;;;27.48;19.75;;;;;;;;;;5006816;28;20041;-74
2024/02/12 08:46:38;;;;;;;27.95;17.25;;;;;;;;;;5007260;28;20029;-73
2024/02/12 08:49:05;;;;;;;30.30;18.77;;;;;;;;;;5013765;28;20128;-73
2024/02/12 08:51:31;;;;;;;25.45;17.80;;;;;;;;;;5012532;28;20030;-73
2024/02/12 08:53:57;;;;;;;32.15;19.40;;;;;;;;;;5013798;28;20022;-71
2024/02/12 08:56:23;;;;;;;30.17;19.10;;;;;;;;;;5007565;28;20093;-72
2024/02/12 08:58:49;;;;;;;26.35;17.98;;;;;;;;;;4996722;28;20037;-72
2024/02/12 09:01:19;;;;;;;25.00;17.45;;;;;;;;;;5006188;28;20041;-73
2024/02/12 09:03:45;;;;;;;21.85;15.77;;;;;;;;;;5014069;28;20034;-72
2024/02/12 09:06:12;;;;;;;24.27;16.35;;;;;;;;;;5008016;28;20123;-71
2024/02/12 09:08:39;;;;;;;23.58;15.55;;;;;;;;;;5013384;28;20488;-75
2024/02/12 09:11:05;;;;;;;24.00;17.00;;;;;;;;;;5012442;28;20338;-74
2024/02/12 09:13:31;;;;;;;23.52;17.52;;;;;;;;;;5006141;28;20033;-75
2024/02/12 09:15:57;;;;;;;23.77;16.65;;;;;;;;;;5007693;28;20022;-74
2024/02/12 09:18:26;;;;;;;27.23;17.70;;;;;;;;;;5013582;28;20022;-70
2024/02/12 09:20:54;;;;;;;26.88;18.63;;;;;;;;;;5009697;28;20105;-70
2024/02/12 09:23:21;;;;;;;25.40;18.30;;;;;;;;;;5006715;28;20034;-68
2024/02/12 09:25:47;;;;;;;27.92;19.45;;;;;;;;;;5005927;28;20503;-72
2024/02/12 09:28:13;;;;;;;27.55;18.83;;;;;;;;;;5011850;28;20025;-71
2024/02/12 09:30:39;;;;;;;29.08;20.63;;;;;;;;;;5011752;28;20026;-72
2024/02/12 09:33:06;;;;;;;31.27;21.00;;;;;;;;;;5000077;28;20033;-71
2024/02/12 09:35:35;;;;;;;36.45;23.02;;;;;;;;;;5012347;28;20034;-73
2024/02/12 09:38:03;;;;;;;39.00;23.58;;;;;;;;;;4994702;28;20030;-73
2024/02/12 09:40:33;;;;;;;37.13;24.10;;;;;;;;;;5010969;28;20018;-72
2024/02/12 09:42:59;;;;;;;39.03;23.50;;;;;;;;;;5004545;28;20041;-73
2024/02/12 09:45:28;;;;;;;37.58;24.63;;;;;;;;;;5011156;28;20029;-71
2024/02/12 09:47:55;;;;;;;43.10;27.08;;;;;;;;;;5011799;28;20157;-71
2024/02/12 09:50:22;;;;;;;35.58;25.13;;;;;;;;;;5012893;28;20040;-72
2024/02/12 09:52:48;;;;;;;37.42;24.85;;;;;;;;;;5011427;28;20030;-71
2024/02/12 09:55:15;;;;;;;34.92;24.15;;;;;;;;;;5004361;28;20095;-71
2024/02/12 09:57:41;;;;;;;36.72;25.42;;;;;;;;;;5012583;28;20128;-71
2024/02/12 10:00:08;;;;;;;35.90;23.52;;;;;;;;;;5007479;28;20045;-71
2024/02/12 10:02:36;;;;;;;36.72;25.30;;;;;;;;;;5009039;28;20029;-71
2024/02/12 10:05:10;;;;;;;37.35;25.65;;;;;;;;;;5010785;28;20029;-71
2024/02/12 10:07:39;;;;;;;35.00;24.80;;;;;;;;;;5012677;28;20506;-72
2024/02/12 10:10:07;;;;;;;35.58;23.77;;;;;;;;;;5008876;28;20058;-72
2024/02/12 10:12:36;;;;;;;34.35;24.27;;;;;;;;;;4995510;28;20058;-72
2024/02/12 10:15:02;;;;;;;33.55;24.05;;;;;;;;;;5007245;28;20097;-73
2024/02/12 10:17:28;;;;;;;32.75;25.00;;;;;;;;;;5011982;28;20026;-72
2024/02/12 10:19:54;;;;;;;35.85;24.33;;;;;;;;;;5013265;28;20038;-72
2024/02/12 10:22:23;;;;;;;35.03;24.35;;;;;;;;;;5011888;28;20103;-73
2024/02/12 10:24:51;;;;;;;34.28;23.92;;;;;;;;;;5012567;28;20081;-73
2024/02/12 10:27:22;;;;;;;36.08;25.65;;;;;;;;;;5011841;28;20030;-72
2024/02/12 10:29:58;;;;;;;31.63;23.35;;;;;;;;;;5010438;28;20463;-73
2024/02/12 10:32:24;;;;;;;34.15;24.48;;;;;;;;;;5012396;28;20390;-74
2024/02/12 10:34:53;;;;;;;31.20;22.13;;;;;;;;;;5012174;28;20494;-73
2024/02/12 10:37:24;;;;;;;30.25;24.15;;;;;;;;;;5010373;28;20028;-72
2024/02/12 10:39:51;;;;;;;35.45;25.02;;;;;;;;;;5018208;28;20030;-73
2024/02/12 10:42:22;;;;;;;33.05;23.17;;;;;;;;;;5011963;28;20034;-73
2024/02/12 10:44:50;;;;;;;31.40;22.90;;;;;;;;;;5012628;28;20060;-74
2024/02/12 10:47:16;;;;;;;30.83;22.08;;;;;;;;;;5011415;28;20040;-74
2024/02/12 10:49:42;;;;;;;33.92;23.58;;;;;;;;;;5012031;28;20033;-74
2024/02/12 10:52:09;;;;;;;30.48;22.13;;;;;;;;;;5012179;28;20029;-73
2024/02/12 10:54:36;;;;;;;30.75;23.38;;;;;;;;;;5009506;28;20542;-73
2024/02/12 10:57:02;;;;;;;32.78;23.80;;;;;;;;;;5021782;28;20025;-74
2024/02/12 10:59:30;;;;;;;30.58;22.92;;;;;;;;;;5005997;28;20471;-74
2024/02/12 11:01:56;;;;;;;34.45;25.05;;;;;;;;;;5009738;28;20049;-74
2024/02/12 11:04:26;;;;;;;32.08;24.02;;;;;;;;;;5008202;28;20108;-72
2024/02/12 11:06:52;;;;;;;30.77;23.98;;;;;;;;;;5008260;28;20022;-73
2024/02/12 11:09:19;;;;;;;32.65;24.58;;;;;;;;;;5000789;28;20030;-73
2024/02/12 11:11:46;;;;;;;30.77;22.40;;;;;;;;;;5004980;28;20034;-74
2024/02/12 11:14:18;;;;;;;28.30;21.20;;;;;;;;;;5006078;28;20032;-73
2024/02/12 11:16:49;;;;;;;33.17;24.67;;;;;;;;;;5005256;28;20149;-75
2024/02/12 11:19:21;;;;;;;28.65;21.38;;;;;;;;;;5009862;28;20018;-73
2024/02/12 11:21:53;;;;;;;27.10;21.20;;;;;;;;;;5020867;28;20176;-73
2024/02/12 11:24:19;;;;;;;31.17;21.85;;;;;;;;;;5008525;28;20104;-73
2024/02/12 11:26:47;;;;;;;25.35;18.85;;;;;;;;;;5011514;28;20112;-72
2024/02/12 11:29:16;;;;;;;26.33;20.13;;;;;;;;;;5005519;28;20030;-72
2024/02/12 11:31:44;;;;;;;25.30;19.90;;;;;;;;;;5010655;28;20120;-73
2024/02/12 11:34:13;;;;;;;22.00;17.83;;;;;;;;;;5001619;28;20029;-73
2024/02/12 11:36:40;;;;;;;23.48;19.85;;;;;;;;;;5011596;28;20436;-74
2024/02/12 11:39:07;;;;;;;25.40;18.95;;;;;;;;;;5001618;28;20113;-74
2024/02/12 11:41:33;;;;;;;27.25;20.33;;;;;;;;;;5011674;28;20038;-74
2024/02/12 11:44:05;;;;;;;28.30;20.42;;;;;;;;;;5011731;28;20026;-71
2024/02/12 11:46:31;;;;;;;27.40;19.85;;;;;;;;;;5011741;28;20022;-71
2024/02/12 11:49:06;;;;;;;26.98;20.20;;;;;;;;;;5011746;28;20133;-72
2024/02/12 11:51:33;;;;;;;25.85;19.45;;;;;;;;;;4998480;28;20018;-71
2024/02/12 11:54:00;;;;;;;24.92;20.40;;;;;;;;;;5010898;28;20025;-72
2024/02/12 11:56:26;;;;;;;28.33;22.27;;;;;;;;;;5011368;28;20033;-72
2024/02/12 11:58:55;;;;;;;29.08;21.33;;;;;;;;;;5012711;28;20030;-71
2024/02/12 12:01:21;;;;;;;24.23;19.58;;;;;;;;;;5014703;28;20038;-71
2024/02/12 12:03:49;;;;;;;29.20;21.65;;;;;;;;;;5014898;28;20075;-72
2024/02/12 12:06:16;;;;;;;26.85;20.90;;;;;;;;;;5013178;28;20051;-73
2024/02/12 12:08:42;;;;;;;26.17;20.23;;;;;;;;;;5014614;28;20029;-72
2024/02/12 12:11:08;;;;;;;27.52;20.30;;;;;;;;;;5014422;28;20037;-71
2024/02/12 12:13:34;;;;;;;29.70;20.77;;;;;;;;;;5015058;28;20105;-72
2024/02/12 12:16:00;;;;;;;24.90;20.88;;;;;;;;;;5015196;28;20033;-72
2024/02/12 12:18:26;;;;;;;27.63;21.20;;;;;;;;;;5013581;28;20125;-72
2024/02/12 12:20:54;;;;;;;28.33;20.42;;;;;;;;;;5014632;28;20026;-74
2024/02/12 12:23:21;;;;;;;25.92;20.38;;;;;;;;;;5014289;28;20403;-71
2024/02/12 12:25:49;;;;;;;24.20;18.42;;;;;;;;;;5014716;28;20041;-73
2024/02/12 12:28:15;;;;;;;22.05;17.80;;;;;;;;;;5020247;28;20108;-73
2024/02/12 12:30:41;;;;;;;31.25;18.35;;;;;;;;;;5016395;28;20056;-74
2024/02/12 12:33:08;;;;;;;26.73;19.35;;;;;;;;;;5003346;28;20523;-73
2024/02/12 12:35:34;;;;;;;24.02;18.80;;;;;;;;;;5013074;28;20101;-74
2024/02/12 12:38:08;;;;;;;23.35;18.70;;;;;;;;;;5014693;28;20053;-73
2024/02/12 12:40:34;;;;;;;26.17;18.77;;;;;;;;;;5014188;28;20026;-73
2024/02/12 12:43:01;;;;;;;23.38;18.38;;;;;;;;;;5014266;28;20450;-74
2024/02/12 12:45:27;;;;;;;23.63;18.20;;;;;;;;;;5013344;28;20033;-74
2024/02/12 12:47:53;;;;;;;25.83;19.92;;;;;;;;;;5001620;28;20029;-74
2024/02/12 12:50:19;;;;;;;27.85;20.85;;;;;;;;;;5014182;28;20026;-72
2024/02/12 12:52:45;;;;;;;25.92;20.13;;;;;;;;;;5014147;28;20148;-73
2024/02/12 12:55:12;;;;;;;23.48;18.50;;;;;;;;;;5014600;28;20049;-73
2024/02/12 12:57:38;;;;;;;19.25;15.82;;;;;;;;;;5010172;28;20044;-74
2024/02/12 13:00:06;;;;;;;19.90;14.88;;;;;;;;;;5014205;28;20068;-73
2024/02/12 13:02:32;;;;;;;21.98;15.55;;;;;;;;;;5012327;28;20508;-74
2024/02/12 13:05:00;;;;;;;18.38;14.85;;;;;;;;;;5013907;28;20472;-73
2024/02/12 13:07:26;;;;;;;21.33;16.58;;;;;;;;;;5014314;28;20452;-73
2024/02/12 13:09:52;;;;;;;19.67;16.63;;;;;;;;;;5024775;28;20033;-74
2024/02/12 13:12:18;;;;;;;19.50;16.40;;;;;;;;;;5007711;28;20037;-74
2024/02/12 13:14:44;;;;;;;22.52;17.73;;;;;;;;;;5013416;28;20034;-74
2024/02/12 13:17:11;;;;;;;16.35;14.43;;;;;;;;;;5013709;28;20026;-73
2024/02/12 13:19:37;;;;;;;17.20;13.77;;;;;;;;;;5013664;28;20556;-72
2024/02/12 13:22:05;;;;;;;22.50;16.23;;;;;;;;;;5013450;28;20088;-72
2024/02/12 13:24:31;;;;;;;19.05;15.52;;;;;;;;;;5013249;28;20042;-73
2024/02/12 13:26:59;;;;;;;27.40;15.00;;;;;;;;;;5011606;28;20380;-72
2024/02/12 13:29:26;;;;;;;16.65;14.07;;;;;;;;;;5013025;28;20526;-72
2024/02/12 13:31:52;;;;;;;22.55;16.45;;;;;;;;;;5016012;28;20024;-71
2024/02/12 13:34:18;;;;;;;19.17;15.57;;;;;;;;;;5012477;28;20030;-73
2024/02/12 13:36:49;;;;;;;26.00;19.10;;;;;;;;;;5018301;28;20030;-72
2024/02/12 13:39:19;;;;;;;21.45;15.65;;;;;;;;;;5023663;28;20026;-73
2024/02/12 13:41:46;;;;;;;19.98;15.65;;;;;;;;;;5016741;28;20492;-72
2024/02/12 13:44:12;;;;;;;15.65;12.63;;;;;;;;;;5013278;28;20018;-72
2024/02/12 13:46:38;;;;;;;17.23;14.02;;;;;;;;;;5012980;28;20026;-72
2024/02/12 13:49:04;;;;;;;15.85;13.35;;;;;;;;;;5013173;28;20076;-72
2024/02/12 13:51:30;;;;;;;17.73;12.65;;;;;;;;;;5013038;28;20034;-72
2024/02/12 13:53:56;;;;;;;19.45;13.75;;;;;;;;;;5012414;28;20110;-72
2024/02/12 13:56:24;;;;;;;19.88;14.93;;;;;;;;;;5000475;28;20030;-72
2024/02/12 13:58:50;;;;;;;19.95;14.98;;;;;;;;;;5013020;28;20128;-72
2024/02/12 14:01:16;;;;;;;24.23;17.27;;;;;;;;;;5004613;28;20034;-72
2024/02/12 14:03:44;;;;;;;19.20;14.25;;;;;;;;;;5012808;28;20022;-72
2024/02/12 14:06:20;;;;;;;19.00;13.57;;;;;;;;;;5011386;28;20192;-72
2024/02/12 14:08:46;;;;;;;21.20;14.90;;;;;;;;;;5012706;28;20048;-71
2024/02/12 14:11:12;;;;;;;23.98;16.25;;;;;;;;;;5012655;28;20392;-71
2024/02/12 14:13:39;;;;;;;19.42;14.27;;;;;;;;;;5012563;28;20053;-71
2024/02/12 14:16:06;;;;;;;19.65;15.27;;;;;;;;;;5011619;28;20105;-71
2024/02/12 14:18:33;;;;;;;21.45;15.40;;;;;;;;;;5010637;28;20185;-73
2024/02/12 14:20:59;;;;;;;21.05;15.82;;;;;;;;;;5009818;28;20034;-73
2024/02/12 14:23:26;;;;;;;22.05;15.05;;;;;;;;;;5008342;28;20384;-72
2024/02/12 14:25:53;;;;;;;16.08;12.90;;;;;;;;;;5002604;28;20022;-73
2024/02/12 14:28:19;;;;;;;16.85;14.23;;;;;;;;;;5010475;28;20106;-72
2024/02/12 14:30:46;;;;;;;15.00;12.65;;;;;;;;;;5012522;28;20491;-75
2024/02/12 14:33:14;;;;;;;17.10;12.82;;;;;;;;;;5012324;28;20054;-72